sensor_id;sensor_type;location;lat;lon;timestamp;temperature;humidity
31733;DHT22;18312;51.486;7.144;2022-07-22T00:01:01;16.30;99.90
31733;DHT22;18312;51.486;7.144;2022-07-22T00:03:29;16.20;99.90
31733;DHT22;18312;51.486;7.144;2022-07-22T00:05:56;16.20;99.90
31733;DHT22;18312;51.486;7.144;2022-07-22T00:08:23;16.20;99.90
31733;DHT22;18312;51.486;7.144;2022-07-22T00:10:50;16.20;99.90
31733;DHT22;18312;51.486;7.144;2022-07-22T00:13:16;16.20;99.90
31733;DHT22;18312;51.486;7.144;2022-07-22T00:15:43;16.20;99.90
31733;DHT22;18312;51.486;7.144;2022-07-22T00:18:10;16.20;99.90
31733;DHT22;18312;51.486;7.144;2022-07-22T00:20:38;16.20;99.90
31733;DHT22;18312;51.486;7.144;2022-07-22T00:23:05;16.20;99.90
31733;DHT22;18312;51.486;7.144;2022-07-22T00:25:31;16.30;99.90
31733;DHT22;18312;51.486;7.144;2022-07-22T00:27:58;16.20;99.90
31733;DHT22;18312;51.486;7.144;2022-07-22T00:30:25;16.20;99.90
31733;DHT22;18312;51.486;7.144;2022-07-22T00:32:52;16.20;99.90
31733;DHT22;18312;51.486;7.144;2022-07-22T00:35:18;16.20;99.90
31733;DHT22;18312;51.486;7.144;2022-07-22T00:37:46;16.20;99.90
31733;DHT22;18312;51.486;7.144;2022-07-22T00:40:13;16.10;99.90
31733;DHT22;18312;51.486;7.144;2022-07-22T00:42:40;16.10;99.90
31733;DHT22;18312;51.486;7.144;2022-07-22T00:45:08;16.10;99.90
31733;DHT22;18312;51.486;7.144;2022-07-22T00:47:35;16.10;99.90
31733;DHT22;18312;51.486;7.144;2022-07-22T00:50:03;16.00;99.90
31733;DHT22;18312;51.486;7.144;2022-07-22T00:52:30;16.10;99.90
31733;DHT22;18312;51.486;7.144;2022-07-22T00:55:00;16.00;99.90
31733;DHT22;18312;51.486;7.144;2022-07-22T00:57:27;16.10;99.90
31733;DHT22;18312;51.486;7.144;2022-07-22T00:59:56;16.00;99.90
31733;DHT22;18312;51.486;7.144;2022-07-22T01:02:23;16.00;99.90
31733;DHT22;18312;51.486;7.144;2022-07-22T01:04:50;16.10;99.90
31733;DHT22;18312;51.486;7.144;2022-07-22T01:07:16;16.10;99.90
31733;DHT22;18312;51.486;7.144;2022-07-22T01:09:43;16.10;99.90
31733;DHT22;18312;51.486;7.144;2022-07-22T01:12:12;16.00;99.90
31733;DHT22;18312;51.486;7.144;2022-07-22T01:14:39;16.00;99.90
31733;DHT22;18312;51.486;7.144;2022-07-22T01:17:06;16.00;99.90
31733;DHT22;18312;51.486;7.144;2022-07-22T01:19:34;16.00;99.90
31733;DHT22;18312;51.486;7.144;2022-07-22T01:22:03;16.00;99.90
31733;DHT22;18312;51.486;7.144;2022-07-22T01:24:30;16.00;99.90
31733;DHT22;18312;51.486;7.144;2022-07-22T01:26:56;16.00;99.90
31733;DHT22;18312;51.486;7.144;2022-07-22T01:29:23;16.00;99.90
31733;DHT22;18312;51.486;7.144;2022-07-22T01:31:50;16.00;99.90
31733;DHT22;18312;51.486;7.144;2022-07-22T01:34:17;16.00;99.90
31733;DHT22;18312;51.486;7.144;2022-07-22T01:36:44;15.90;99.90
31733;DHT22;18312;51.486;7.144;2022-07-22T01:39:12;15.90;99.90
31733;DHT22;18312;51.486;7.144;2022-07-22T01:41:39;15.90;99.90
31733;DHT22;18312;51.486;7.144;2022-07-22T01:44:06;15.90;99.90
31733;DHT22;18312;51.486;7.144;2022-07-22T01:46:32;15.90;99.90
31733;DHT22;18312;51.486;7.144;2022-07-22T01:48:59;15.90;99.90
31733;DHT22;18312;51.486;7.144;2022-07-22T01:51:26;15.90;99.90
31733;DHT22;18312;51.486;7.144;2022-07-22T01:53:53;15.90;99.90
31733;DHT22;18312;51.486;7.144;2022-07-22T01:56:21;15.80;99.90
31733;DHT22;18312;51.486;7.144;2022-07-22T01:58:48;15.80;99.90
31733;DHT22;18312;51.486;7.144;2022-07-22T02:01:15;15.80;99.90
31733;DHT22;18312;51.486;7.144;2022-07-22T02:03:41;15.80;99.90
31733;DHT22;18312;51.486;7.144;2022-07-22T02:06:08;15.80;99.90
31733;DHT22;18312;51.486;7.144;2022-07-22T02:08:35;15.80;99.90
31733;DHT22;18312;51.486;7.144;2022-07-22T02:11:02;15.80;99.90
31733;DHT22;18312;51.486;7.144;2022-07-22T02:13:30;15.80;99.90
31733;DHT22;18312;51.486;7.144;2022-07-22T02:15:57;15.80;99.90
31733;DHT22;18312;51.486;7.144;2022-07-22T02:18:23;15.80;99.90
31733;DHT22;18312;51.486;7.144;2022-07-22T02:20:50;15.70;99.90
31733;DHT22;18312;51.486;7.144;2022-07-22T02:23:19;15.80;99.90
31733;DHT22;18312;51.486;7.144;2022-07-22T02:25:46;15.70;99.90
31733;DHT22;18312;51.486;7.144;2022-07-22T02:28:13;15.70;99.90
31733;DHT22;18312;51.486;7.144;2022-07-22T02:30:41;15.80;99.90
31733;DHT22;18312;51.486;7.144;2022-07-22T02:33:08;15.80;99.90
31733;DHT22;18312;51.486;7.144;2022-07-22T02:35:34;15.60;99.90
31733;DHT22;18312;51.486;7.144;2022-07-22T02:38:01;15.70;99.90
31733;DHT22;18312;51.486;7.144;2022-07-22T02:40:28;15.70;99.90
31733;DHT22;18312;51.486;7.144;2022-07-22T02:42:55;15.70;99.90
31733;DHT22;18312;51.486;7.144;2022-07-22T02:45:22;15.60;99.90
31733;DHT22;18312;51.486;7.144;2022-07-22T02:47:51;15.60;99.90
31733;DHT22;18312;51.486;7.144;2022-07-22T02:50:18;15.60;99.90
31733;DHT22;18312;51.486;7.144;2022-07-22T02:52:45;15.70;99.90
31733;DHT22;18312;51.486;7.144;2022-07-22T02:55:12;15.60;99.90
31733;DHT22;18312;51.486;7.144;2022-07-22T02:57:39;15.50;99.90
31733;DHT22;18312;51.486;7.144;2022-07-22T03:00:07;15.60;99.90
31733;DHT22;18312;51.486;7.144;2022-07-22T03:02:35;15.60;99.90
31733;DHT22;18312;51.486;7.144;2022-07-22T03:05:04;15.60;99.90
31733;DHT22;18312;51.486;7.144;2022-07-22T03:07:32;15.60;99.90
31733;DHT22;18312;51.486;7.144;2022-07-22T03:09:59;15.60;99.90
31733;DHT22;18312;51.486;7.144;2022-07-22T03:12:25;15.60;99.90
31733;DHT22;18312;51.486;7.144;2022-07-22T03:14:52;15.50;99.90
31733;DHT22;18312;51.486;7.144;2022-07-22T03:17:19;15.50;99.90
31733;DHT22;18312;51.486;7.144;2022-07-22T03:19:46;15.50;99.90
31733;DHT22;18312;51.486;7.144;2022-07-22T03:22:14;15.50;99.90
31733;DHT22;18312;51.486;7.144;2022-07-22T03:24:40;15.50;99.90
31733;DHT22;18312;51.486;7.144;2022-07-22T03:27:08;15.40;99.90
31733;DHT22;18312;51.486;7.144;2022-07-22T03:29:35;15.50;99.90
31733;DHT22;18312;51.486;7.144;2022-07-22T03:32:02;15.50;99.90
31733;DHT22;18312;51.486;7.144;2022-07-22T03:34:29;15.50;99.90
31733;DHT22;18312;51.486;7.144;2022-07-22T03:36:55;15.40;99.90
31733;DHT22;18312;51.486;7.144;2022-07-22T03:39:24;15.50;99.90
31733;DHT22;18312;51.486;7.144;2022-07-22T03:41:50;15.50;99.90
31733;DHT22;18312;51.486;7.144;2022-07-22T03:44:17;15.50;99.90
31733;DHT22;18312;51.486;7.144;2022-07-22T03:46:44;15.50;99.90
31733;DHT22;18312;51.486;7.144;2022-07-22T03:49:11;15.50;99.90
31733;DHT22;18312;51.486;7.144;2022-07-22T03:51:37;15.60;99.90
31733;DHT22;18312;51.486;7.144;2022-07-22T03:54:04;15.60;99.90
31733;DHT22;18312;51.486;7.144;2022-07-22T03:56:33;15.60;99.90
31733;DHT22;18312;51.486;7.144;2022-07-22T03:59:00;15.60;99.90
31733;DHT22;18312;51.486;7.144;2022-07-22T04:01:27;15.60;99.90
31733;DHT22;18312;51.486;7.144;2022-07-22T04:03:53;15.60;99.90
31733;DHT22;18312;51.486;7.144;2022-07-22T04:06:20;15.70;99.90
31733;DHT22;18312;51.486;7.144;2022-07-22T04:08:47;15.70;99.90
31733;DHT22;18312;51.486;7.144;2022-07-22T04:11:14;15.70;99.90
31733;DHT22;18312;51.486;7.144;2022-07-22T04:13:42;15.70;99.90
31733;DHT22;18312;51.486;7.144;2022-07-22T04:16:09;15.70;99.90
31733;DHT22;18312;51.486;7.144;2022-07-22T04:18:35;15.70;99.90
31733;DHT22;18312;51.486;7.144;2022-07-22T04:21:02;15.70;99.90
31733;DHT22;18312;51.486;7.144;2022-07-22T04:23:29;15.70;99.90
31733;DHT22;18312;51.486;7.144;2022-07-22T04:25:57;15.70;99.90
31733;DHT22;18312;51.486;7.144;2022-07-22T04:28:23;15.70;99.90
31733;DHT22;18312;51.486;7.144;2022-07-22T04:30:52;15.60;99.90
31733;DHT22;18312;51.486;7.144;2022-07-22T04:33:18;15.60;99.90
31733;DHT22;18312;51.486;7.144;2022-07-22T04:35:45;15.70;99.90
31733;DHT22;18312;51.486;7.144;2022-07-22T04:38:12;15.60;99.90
31733;DHT22;18312;51.486;7.144;2022-07-22T04:40:38;15.70;99.90
31733;DHT22;18312;51.486;7.144;2022-07-22T04:43:05;15.70;99.90
31733;DHT22;18312;51.486;7.144;2022-07-22T04:45:32;15.70;99.90
31733;DHT22;18312;51.486;7.144;2022-07-22T04:48:00;15.70;99.90
31733;DHT22;18312;51.486;7.144;2022-07-22T04:50:27;15.70;99.90
31733;DHT22;18312;51.486;7.144;2022-07-22T04:52:53;15.80;99.90
31733;DHT22;18312;51.486;7.144;2022-07-22T04:55:20;15.70;99.90
31733;DHT22;18312;51.486;7.144;2022-07-22T04:57:47;15.70;99.90
31733;DHT22;18312;51.486;7.144;2022-07-22T05:00:15;15.80;99.90
31733;DHT22;18312;51.486;7.144;2022-07-22T05:02:42;15.80;99.90
31733;DHT22;18312;51.486;7.144;2022-07-22T05:05:10;15.90;99.90
31733;DHT22;18312;51.486;7.144;2022-07-22T05:07:37;15.80;99.90
31733;DHT22;18312;51.486;7.144;2022-07-22T05:10:05;15.80;99.90
31733;DHT22;18312;51.486;7.144;2022-07-22T05:12:32;16.00;99.90
31733;DHT22;18312;51.486;7.144;2022-07-22T05:14:59;15.90;99.90
31733;DHT22;18312;51.486;7.144;2022-07-22T05:17:26;16.00;99.90
31733;DHT22;18312;51.486;7.144;2022-07-22T05:19:52;16.10;99.90
31733;DHT22;18312;51.486;7.144;2022-07-22T05:22:20;16.20;99.90
31733;DHT22;18312;51.486;7.144;2022-07-22T05:24:47;16.30;99.90
31733;DHT22;18312;51.486;7.144;2022-07-22T05:27:14;16.00;99.90
31733;DHT22;18312;51.486;7.144;2022-07-22T05:29:41;16.10;99.90
31733;DHT22;18312;51.486;7.144;2022-07-22T05:32:07;16.20;99.90
31733;DHT22;18312;51.486;7.144;2022-07-22T05:34:34;16.10;99.90
31733;DHT22;18312;51.486;7.144;2022-07-22T05:37:01;16.30;99.90
31733;DHT22;18312;51.486;7.144;2022-07-22T05:39:29;16.40;99.90
31733;DHT22;18312;51.486;7.144;2022-07-22T05:41:56;16.40;99.90
31733;DHT22;18312;51.486;7.144;2022-07-22T05:44:23;16.40;99.90
31733;DHT22;18312;51.486;7.144;2022-07-22T05:46:50;16.50;99.90
31733;DHT22;18312;51.486;7.144;2022-07-22T05:49:17;16.60;99.90
31733;DHT22;18312;51.486;7.144;2022-07-22T05:51:45;16.50;99.90
31733;DHT22;18312;51.486;7.144;2022-07-22T05:54:11;16.60;99.90
31733;DHT22;18312;51.486;7.144;2022-07-22T05:56:40;16.60;99.90
31733;DHT22;18312;51.486;7.144;2022-07-22T05:59:07;16.60;99.90
31733;DHT22;18312;51.486;7.144;2022-07-22T06:01:33;16.60;99.90
31733;DHT22;18312;51.486;7.144;2022-07-22T06:04:00;16.60;99.90
31733;DHT22;18312;51.486;7.144;2022-07-22T06:06:27;16.70;99.90
31733;DHT22;18312;51.486;7.144;2022-07-22T06:08:54;16.60;99.90
31733;DHT22;18312;51.486;7.144;2022-07-22T06:11:20;16.60;99.90
31733;DHT22;18312;51.486;7.144;2022-07-22T06:13:49;16.60;99.90
31733;DHT22;18312;51.486;7.144;2022-07-22T06:16:15;16.70;99.90
31733;DHT22;18312;51.486;7.144;2022-07-22T06:18:42;16.80;99.90
31733;DHT22;18312;51.486;7.144;2022-07-22T06:21:09;17.00;99.90
31733;DHT22;18312;51.486;7.144;2022-07-22T06:23:36;16.90;99.90
31733;DHT22;18312;51.486;7.144;2022-07-22T06:26:02;16.90;99.90
31733;DHT22;18312;51.486;7.144;2022-07-22T06:28:29;17.00;99.90
31733;DHT22;18312;51.486;7.144;2022-07-22T06:30:57;17.00;99.90
31733;DHT22;18312;51.486;7.144;2022-07-22T06:33:24;17.00;99.90
31733;DHT22;18312;51.486;7.144;2022-07-22T06:35:51;16.90;99.90
31733;DHT22;18312;51.486;7.144;2022-07-22T06:38:18;17.00;99.90
31733;DHT22;18312;51.486;7.144;2022-07-22T06:40:44;17.10;99.90
31733;DHT22;18312;51.486;7.144;2022-07-22T06:43:11;17.10;99.90
31733;DHT22;18312;51.486;7.144;2022-07-22T06:45:38;17.20;99.90
31733;DHT22;18312;51.486;7.144;2022-07-22T06:48:06;17.20;99.90
31733;DHT22;18312;51.486;7.144;2022-07-22T06:50:33;17.20;99.90
31733;DHT22;18312;51.486;7.144;2022-07-22T06:52:59;17.20;99.90
31733;DHT22;18312;51.486;7.144;2022-07-22T06:55:26;17.20;99.90
31733;DHT22;18312;51.486;7.144;2022-07-22T06:57:53;17.30;99.90
31733;DHT22;18312;51.486;7.144;2022-07-22T07:00:21;17.40;99.90
31733;DHT22;18312;51.486;7.144;2022-07-22T07:02:48;17.40;99.90
31733;DHT22;18312;51.486;7.144;2022-07-22T07:05:16;17.30;99.90
31733;DHT22;18312;51.486;7.144;2022-07-22T07:07:43;17.40;99.90
31733;DHT22;18312;51.486;7.144;2022-07-22T07:10:09;17.50;99.90
31733;DHT22;18312;51.486;7.144;2022-07-22T07:12:38;17.70;99.90
31733;DHT22;18312;51.486;7.144;2022-07-22T07:15:05;17.70;99.90
31733;DHT22;18312;51.486;7.144;2022-07-22T07:17:32;17.50;99.90
31733;DHT22;18312;51.486;7.144;2022-07-22T07:19:59;17.60;99.90
31733;DHT22;18312;51.486;7.144;2022-07-22T07:22:27;17.70;99.90
31733;DHT22;18312;51.486;7.144;2022-07-22T07:24:54;17.70;99.90
31733;DHT22;18312;51.486;7.144;2022-07-22T07:27:21;17.70;99.90
31733;DHT22;18312;51.486;7.144;2022-07-22T07:29:48;17.90;99.90
31733;DHT22;18312;51.486;7.144;2022-07-22T07:32:19;17.90;99.90
31733;DHT22;18312;51.486;7.144;2022-07-22T07:34:46;17.90;99.90
31733;DHT22;18312;51.486;7.144;2022-07-22T07:37:13;18.00;99.90
31733;DHT22;18312;51.486;7.144;2022-07-22T07:39:41;18.00;99.90
31733;DHT22;18312;51.486;7.144;2022-07-22T07:42:08;18.20;99.90
31733;DHT22;18312;51.486;7.144;2022-07-22T07:44:35;18.10;99.90
31733;DHT22;18312;51.486;7.144;2022-07-22T07:47:02;18.20;99.90
31733;DHT22;18312;51.486;7.144;2022-07-22T07:49:29;18.20;99.90
31733;DHT22;18312;51.486;7.144;2022-07-22T07:51:56;18.10;99.90
31733;DHT22;18312;51.486;7.144;2022-07-22T07:54:22;17.80;99.90
31733;DHT22;18312;51.486;7.144;2022-07-22T07:56:50;18.00;99.90
31733;DHT22;18312;51.486;7.144;2022-07-22T07:59:18;18.10;99.90
31733;DHT22;18312;51.486;7.144;2022-07-22T08:01:44;18.10;99.90
31733;DHT22;18312;51.486;7.144;2022-07-22T08:04:11;17.90;99.90
31733;DHT22;18312;51.486;7.144;2022-07-22T08:06:38;18.10;99.90
31733;DHT22;18312;51.486;7.144;2022-07-22T08:09:04;18.20;99.90
31733;DHT22;18312;51.486;7.144;2022-07-22T08:11:31;18.40;99.90
31733;DHT22;18312;51.486;7.144;2022-07-22T08:13:59;18.50;99.90
31733;DHT22;18312;51.486;7.144;2022-07-22T08:16:26;18.50;99.90
31733;DHT22;18312;51.486;7.144;2022-07-22T08:18:53;18.50;99.90
31733;DHT22;18312;51.486;7.144;2022-07-22T08:21:19;18.80;99.90
31733;DHT22;18312;51.486;7.144;2022-07-22T08:23:46;18.80;99.90
31733;DHT22;18312;51.486;7.144;2022-07-22T08:26:13;18.70;99.90
31733;DHT22;18312;51.486;7.144;2022-07-22T08:28:40;18.70;99.90
31733;DHT22;18312;51.486;7.144;2022-07-22T08:31:08;18.60;99.90
31733;DHT22;18312;51.486;7.144;2022-07-22T08:33:35;18.60;99.90
31733;DHT22;18312;51.486;7.144;2022-07-22T08:36:01;18.90;99.90
31733;DHT22;18312;51.486;7.144;2022-07-22T08:38:28;18.90;99.90
31733;DHT22;18312;51.486;7.144;2022-07-22T08:40:56;18.80;99.90
31733;DHT22;18312;51.486;7.144;2022-07-22T08:43:23;18.50;99.90
31733;DHT22;18312;51.486;7.144;2022-07-22T08:45:50;18.80;99.90
31733;DHT22;18312;51.486;7.144;2022-07-22T08:48:18;19.00;99.90
31733;DHT22;18312;51.486;7.144;2022-07-22T08:50:45;19.10;99.90
31733;DHT22;18312;51.486;7.144;2022-07-22T08:53:12;18.90;99.90
31733;DHT22;18312;51.486;7.144;2022-07-22T08:55:42;18.70;99.90
31733;DHT22;18312;51.486;7.144;2022-07-22T08:58:09;18.60;99.90
31733;DHT22;18312;51.486;7.144;2022-07-22T09:00:37;18.70;99.90
31733;DHT22;18312;51.486;7.144;2022-07-22T09:03:18;19.00;99.90
31733;DHT22;18312;51.486;7.144;2022-07-22T09:05:46;19.00;99.90
31733;DHT22;18312;51.486;7.144;2022-07-22T09:08:12;19.10;99.90
31733;DHT22;18312;51.486;7.144;2022-07-22T09:10:40;19.30;99.90
31733;DHT22;18312;51.486;7.144;2022-07-22T09:13:09;19.20;99.90
31733;DHT22;18312;51.486;7.144;2022-07-22T09:15:38;19.10;99.90
31733;DHT22;18312;51.486;7.144;2022-07-22T09:18:07;19.30;99.90
31733;DHT22;18312;51.486;7.144;2022-07-22T09:20:36;19.40;99.90
31733;DHT22;18312;51.486;7.144;2022-07-22T09:23:10;19.40;99.90
31733;DHT22;18312;51.486;7.144;2022-07-22T09:25:38;19.10;99.90
31733;DHT22;18312;51.486;7.144;2022-07-22T09:28:15;19.00;99.90
31733;DHT22;18312;51.486;7.144;2022-07-22T09:30:46;19.20;99.90
31733;DHT22;18312;51.486;7.144;2022-07-22T09:33:14;19.40;99.90
31733;DHT22;18312;51.486;7.144;2022-07-22T09:35:43;19.20;99.90
31733;DHT22;18312;51.486;7.144;2022-07-22T09:38:11;19.20;99.90
31733;DHT22;18312;51.486;7.144;2022-07-22T09:40:41;19.10;99.90
31733;DHT22;18312;51.486;7.144;2022-07-22T09:43:09;19.00;99.90
31733;DHT22;18312;51.486;7.144;2022-07-22T09:45:44;19.30;99.90
31733;DHT22;18312;51.486;7.144;2022-07-22T09:48:11;19.60;99.90
31733;DHT22;18312;51.486;7.144;2022-07-22T09:50:38;20.00;99.90
31733;DHT22;18312;51.486;7.144;2022-07-22T09:53:07;20.20;99.90
31733;DHT22;18312;51.486;7.144;2022-07-22T09:55:33;20.20;99.90
31733;DHT22;18312;51.486;7.144;2022-07-22T09:58:06;20.10;99.90
31733;DHT22;18312;51.486;7.144;2022-07-22T10:00:34;19.70;99.90
31733;DHT22;18312;51.486;7.144;2022-07-22T10:03:03;19.80;99.90
31733;DHT22;18312;51.486;7.144;2022-07-22T10:05:33;20.10;99.90
31733;DHT22;18312;51.486;7.144;2022-07-22T10:08:02;20.10;99.90
31733;DHT22;18312;51.486;7.144;2022-07-22T10:10:32;20.20;99.90
31733;DHT22;18312;51.486;7.144;2022-07-22T10:13:01;19.90;99.90
31733;DHT22;18312;51.486;7.144;2022-07-22T10:15:30;19.60;99.90
31733;DHT22;18312;51.486;7.144;2022-07-22T10:17:59;19.40;99.90
31733;DHT22;18312;51.486;7.144;2022-07-22T10:20:28;19.50;99.90
31733;DHT22;18312;51.486;7.144;2022-07-22T10:22:56;19.80;99.90
31733;DHT22;18312;51.486;7.144;2022-07-22T10:25:25;19.90;99.90
31733;DHT22;18312;51.486;7.144;2022-07-22T10:27:55;19.70;99.90
31733;DHT22;18312;51.486;7.144;2022-07-22T10:30:24;19.90;99.90
31733;DHT22;18312;51.486;7.144;2022-07-22T10:33:06;20.00;99.90
31733;DHT22;18312;51.486;7.144;2022-07-22T10:35:35;20.20;99.90
31733;DHT22;18312;51.486;7.144;2022-07-22T10:38:06;20.30;99.90
31733;DHT22;18312;51.486;7.144;2022-07-22T10:40:52;20.20;99.90
31733;DHT22;18312;51.486;7.144;2022-07-22T10:43:22;20.00;99.90
31733;DHT22;18312;51.486;7.144;2022-07-22T10:45:51;20.00;99.90
31733;DHT22;18312;51.486;7.144;2022-07-22T10:48:23;20.20;99.90
31733;DHT22;18312;51.486;7.144;2022-07-22T10:53:42;20.30;99.90
31733;DHT22;18312;51.486;7.144;2022-07-22T10:56:17;20.30;99.90
31733;DHT22;18312;51.486;7.144;2022-07-22T10:58:54;20.20;99.90
31733;DHT22;18312;51.486;7.144;2022-07-22T11:01:24;20.30;99.90
31733;DHT22;18312;51.486;7.144;2022-07-22T11:03:51;20.30;99.90
31733;DHT22;18312;51.486;7.144;2022-07-22T11:06:24;20.30;99.90
31733;DHT22;18312;51.486;7.144;2022-07-22T11:08:53;20.60;99.90
31733;DHT22;18312;51.486;7.144;2022-07-22T11:11:36;20.70;99.90
31733;DHT22;18312;51.486;7.144;2022-07-22T11:14:13;20.50;99.90
31733;DHT22;18312;51.486;7.144;2022-07-22T11:16:41;20.40;99.90
31733;DHT22;18312;51.486;7.144;2022-07-22T11:19:08;20.80;99.90
31733;DHT22;18312;51.486;7.144;2022-07-22T11:21:35;21.20;99.90
31733;DHT22;18312;51.486;7.144;2022-07-22T11:24:04;21.20;99.90
31733;DHT22;18312;51.486;7.144;2022-07-22T11:26:39;21.50;99.90
31733;DHT22;18312;51.486;7.144;2022-07-22T11:29:06;21.40;99.90
31733;DHT22;18312;51.486;7.144;2022-07-22T11:31:35;21.60;99.90
31733;DHT22;18312;51.486;7.144;2022-07-22T11:34:07;21.70;99.90
31733;DHT22;18312;51.486;7.144;2022-07-22T11:36:35;21.70;99.90
31733;DHT22;18312;51.486;7.144;2022-07-22T11:39:03;21.80;99.90
31733;DHT22;18312;51.486;7.144;2022-07-22T11:41:30;22.20;99.90
31733;DHT22;18312;51.486;7.144;2022-07-22T11:43:58;21.90;99.90
31733;DHT22;18312;51.486;7.144;2022-07-22T11:46:25;22.10;99.90
31733;DHT22;18312;51.486;7.144;2022-07-22T11:48:54;22.30;99.90
31733;DHT22;18312;51.486;7.144;2022-07-22T11:51:27;22.00;99.90
31733;DHT22;18312;51.486;7.144;2022-07-22T11:53:54;21.60;99.90
31733;DHT22;18312;51.486;7.144;2022-07-22T11:56:21;21.20;99.90
31733;DHT22;18312;51.486;7.144;2022-07-22T11:58:49;21.20;99.90
31733;DHT22;18312;51.486;7.144;2022-07-22T12:01:17;21.50;99.90
31733;DHT22;18312;51.486;7.144;2022-07-22T12:03:47;21.40;99.90
31733;DHT22;18312;51.486;7.144;2022-07-22T12:06:17;21.30;99.90
31733;DHT22;18312;51.486;7.144;2022-07-22T12:08:44;21.60;99.90
31733;DHT22;18312;51.486;7.144;2022-07-22T12:11:15;22.00;99.90
31733;DHT22;18312;51.486;7.144;2022-07-22T12:13:43;22.30;99.90
31733;DHT22;18312;51.486;7.144;2022-07-22T12:16:21;22.40;99.90
31733;DHT22;18312;51.486;7.144;2022-07-22T12:18:53;22.10;99.90
31733;DHT22;18312;51.486;7.144;2022-07-22T12:21:23;21.70;99.90
31733;DHT22;18312;51.486;7.144;2022-07-22T12:23:56;21.50;99.90
31733;DHT22;18312;51.486;7.144;2022-07-22T12:26:44;21.70;99.90
31733;DHT22;18312;51.486;7.144;2022-07-22T12:29:22;22.30;99.90
31733;DHT22;18312;51.486;7.144;2022-07-22T12:31:51;22.30;99.90
31733;DHT22;18312;51.486;7.144;2022-07-22T12:34:30;22.70;99.60
31733;DHT22;18312;51.486;7.144;2022-07-22T12:36:58;22.60;97.40
31733;DHT22;18312;51.486;7.144;2022-07-22T12:39:28;23.00;99.00
31733;DHT22;18312;51.486;7.144;2022-07-22T12:41:54;23.30;98.30
31733;DHT22;18312;51.486;7.144;2022-07-22T12:44:24;22.80;99.90
31733;DHT22;18312;51.486;7.144;2022-07-22T12:46:52;23.10;99.90
31733;DHT22;18312;51.486;7.144;2022-07-22T12:49:24;23.60;99.90
31733;DHT22;18312;51.486;7.144;2022-07-22T12:52:12;24.10;97.90
31733;DHT22;18312;51.486;7.144;2022-07-22T12:54:40;23.20;96.50
31733;DHT22;18312;51.486;7.144;2022-07-22T12:57:08;23.00;99.20
31733;DHT22;18312;51.486;7.144;2022-07-22T12:59:35;22.90;99.90
31733;DHT22;18312;51.486;7.144;2022-07-22T13:02:02;22.60;99.90
31733;DHT22;18312;51.486;7.144;2022-07-22T13:04:29;22.30;99.90
31733;DHT22;18312;51.486;7.144;2022-07-22T13:06:56;22.20;99.90
31733;DHT22;18312;51.486;7.144;2022-07-22T13:09:24;22.80;99.90
31733;DHT22;18312;51.486;7.144;2022-07-22T13:11:51;22.90;99.90
31733;DHT22;18312;51.486;7.144;2022-07-22T13:14:18;22.70;99.90
31733;DHT22;18312;51.486;7.144;2022-07-22T13:16:45;23.00;99.90
31733;DHT22;18312;51.486;7.144;2022-07-22T13:19:12;23.80;99.90
31733;DHT22;18312;51.486;7.144;2022-07-22T13:21:39;23.10;97.90
31733;DHT22;18312;51.486;7.144;2022-07-22T13:24:06;22.70;99.90
31733;DHT22;18312;51.486;7.144;2022-07-22T13:26:34;23.10;99.90
31733;DHT22;18312;51.486;7.144;2022-07-22T13:29:01;23.60;96.00
31733;DHT22;18312;51.486;7.144;2022-07-22T13:31:28;23.80;95.30
31733;DHT22;18312;51.486;7.144;2022-07-22T13:33:56;23.30;94.50
31733;DHT22;18312;51.486;7.144;2022-07-22T13:36:23;23.60;95.90
31733;DHT22;18312;51.486;7.144;2022-07-22T13:38:50;23.70;93.50
31733;DHT22;18312;51.486;7.144;2022-07-22T13:41:17;24.30;94.50
31733;DHT22;18312;51.486;7.144;2022-07-22T13:43:46;24.00;93.30
31733;DHT22;18312;51.486;7.144;2022-07-22T13:46:15;24.50;94.30
31733;DHT22;18312;51.486;7.144;2022-07-22T13:48:41;25.10;93.90
31733;DHT22;18312;51.486;7.144;2022-07-22T13:51:08;24.80;93.10
31733;DHT22;18312;51.486;7.144;2022-07-22T13:53:36;24.10;92.90
31733;DHT22;18312;51.486;7.144;2022-07-22T13:56:03;24.20;92.40
31733;DHT22;18312;51.486;7.144;2022-07-22T13:58:31;24.20;91.80
31733;DHT22;18312;51.486;7.144;2022-07-22T14:00:59;24.20;92.70
31733;DHT22;18312;51.486;7.144;2022-07-22T14:03:26;24.70;92.10
31733;DHT22;18312;51.486;7.144;2022-07-22T14:05:54;25.00;92.00
31733;DHT22;18312;51.486;7.144;2022-07-22T14:08:21;24.50;91.20
31733;DHT22;18312;51.486;7.144;2022-07-22T14:10:47;24.20;92.20
31733;DHT22;18312;51.486;7.144;2022-07-22T14:13:14;24.10;91.70
31733;DHT22;18312;51.486;7.144;2022-07-22T14:15:41;24.60;92.30
31733;DHT22;18312;51.486;7.144;2022-07-22T14:18:09;25.20;92.40
31733;DHT22;18312;51.486;7.144;2022-07-22T14:20:36;25.20;91.20
31733;DHT22;18312;51.486;7.144;2022-07-22T14:23:03;25.30;90.30
31733;DHT22;18312;51.486;7.144;2022-07-22T14:25:32;25.10;90.20
31733;DHT22;18312;51.486;7.144;2022-07-22T14:27:58;25.00;91.20
31733;DHT22;18312;51.486;7.144;2022-07-22T14:30:25;25.50;91.70
31733;DHT22;18312;51.486;7.144;2022-07-22T14:32:53;25.30;89.10
31733;DHT22;18312;51.486;7.144;2022-07-22T14:35:21;25.20;90.40
31733;DHT22;18312;51.486;7.144;2022-07-22T14:37:48;24.90;91.00
31733;DHT22;18312;51.486;7.144;2022-07-22T14:40:15;25.30;90.80
31733;DHT22;18312;51.486;7.144;2022-07-22T14:42:41;25.20;90.40
31733;DHT22;18312;51.486;7.144;2022-07-22T14:45:09;25.60;89.60
31733;DHT22;18312;51.486;7.144;2022-07-22T14:47:36;25.00;90.20
31733;DHT22;18312;51.486;7.144;2022-07-22T14:50:03;24.40;90.80
31733;DHT22;18312;51.486;7.144;2022-07-22T14:52:32;24.50;92.10
31733;DHT22;18312;51.486;7.144;2022-07-22T14:54:58;24.20;91.60
31733;DHT22;18312;51.486;7.144;2022-07-22T14:57:25;24.10;91.60
31733;DHT22;18312;51.486;7.144;2022-07-22T14:59:52;25.10;91.00
31733;DHT22;18312;51.486;7.144;2022-07-22T15:02:19;25.30;90.20
31733;DHT22;18312;51.486;7.144;2022-07-22T15:04:46;25.60;89.40
31733;DHT22;18312;51.486;7.144;2022-07-22T15:07:13;25.50;88.00
31733;DHT22;18312;51.486;7.144;2022-07-22T15:09:41;26.30;88.50
31733;DHT22;18312;51.486;7.144;2022-07-22T15:12:07;26.20;88.70
31733;DHT22;18312;51.486;7.144;2022-07-22T15:14:34;25.30;88.90
31733;DHT22;18312;51.486;7.144;2022-07-22T15:17:01;25.50;89.50
31733;DHT22;18312;51.486;7.144;2022-07-22T15:19:28;24.90;89.80
31733;DHT22;18312;51.486;7.144;2022-07-22T15:21:55;25.00;88.20
31733;DHT22;18312;51.486;7.144;2022-07-22T15:24:21;25.40;88.60
31733;DHT22;18312;51.486;7.144;2022-07-22T15:26:50;25.00;89.70
31733;DHT22;18312;51.486;7.144;2022-07-22T15:29:17;24.00;90.80
31733;DHT22;18312;51.486;7.144;2022-07-22T15:31:44;23.70;91.40
31733;DHT22;18312;51.486;7.144;2022-07-22T15:34:10;23.40;91.80
31733;DHT22;18312;51.486;7.144;2022-07-22T15:36:38;23.10;92.10